Casville, North Carolina
Current Conditions -  °F | °C
As of 8:53 AM on Saturday 22 Nov 2014 (Local Time) from KDAN Reporting Station
Clear Clear  
Wind Chill: 28°   Ceiling: Unl
Heat Index: 28°   Visibility: 10mi
Dew Point: 20°   Wind: 3mph
Humidity: 72%   Direction: 200°SSW
Pressure: 30.57"   Gusts: NA
Location:  36.4355°N, 79.5464°W
Report Text: KDAN 221353Z AUTO 20003KT 10SM CLR M02/M07 A3057 RMK AO2 SLP353 T10221067
Loading
Personal Weather Stations






























Interactive Weather Map New forecast layout! Learn more

10-Day Weather Forecast

Advertisements
Track Severe Weather on mobile